createdAt,value
2019-02-16T00:03:28.069Z,38.17
2019-02-16T00:08:33.797Z,35.90
2019-02-16T00:13:39.510Z,37.20
2019-02-16T00:18:43.786Z,40.23
2019-02-16T00:23:48.061Z,38.53
2019-02-16T00:28:52.593Z,38.13
2019-02-16T00:33:57.137Z,40.03
2019-02-16T00:39:01.410Z,43.03
2019-02-16T00:44:05.798Z,36.60
2019-02-16T00:49:10.279Z,36.90
2019-02-16T00:54:15.352Z,37.27
2019-02-16T00:59:19.474Z,35.47
2019-02-16T01:04:23.974Z,42.33
2019-02-16T01:09:28.129Z,36.73
2019-02-16T01:14:32.443Z,37.43
2019-02-16T01:19:36.948Z,38.67
2019-02-16T01:24:41.206Z,39.27
2019-02-16T01:29:45.356Z,36.37
2019-02-16T01:34:49.655Z,35.70
2019-02-16T01:39:53.805Z,38.13
2019-02-16T01:44:58.178Z,38.50
2019-02-16T01:50:02.319Z,35.23
2019-02-16T01:55:08.992Z,41.43
2019-02-16T02:00:14.670Z,40.10
2019-02-16T02:05:20.506Z,37.50
2019-02-16T02:10:24.989Z,38.97
2019-02-16T02:15:29.745Z,40.20
2019-02-16T02:20:34.909Z,39.63
2019-02-16T02:25:39.313Z,41.57
2019-02-16T02:30:43.718Z,39.63
2019-02-16T02:35:48.065Z,37.77
2019-02-16T02:40:52.466Z,38.23
2019-02-16T02:45:56.713Z,39.20
2019-02-16T02:51:00.962Z,40.90
2019-02-16T02:56:05.432Z,38.47
2019-02-16T03:01:10.061Z,37.13
2019-02-16T03:06:15.810Z,39.60
2019-02-16T03:11:20.061Z,40.13
2019-02-16T03:16:26.227Z,38.03
2019-02-16T03:21:30.530Z,41.57
2019-02-16T03:27:07.617Z,40.53
2019-02-16T03:32:48.640Z,43.47
2019-02-16T03:38:22.939Z,41.53
2019-02-16T03:43:27.182Z,41.83
2019-02-16T03:48:31.452Z,39.83
2019-02-16T03:53:36.202Z,46.17
2019-02-16T03:58:40.476Z,40.47
2019-02-16T04:03:44.639Z,45.33
2019-02-16T04:08:48.910Z,40.00
2019-02-16T04:13:53.144Z,44.30
2019-02-16T04:18:57.254Z,48.47
2019-02-16T04:24:01.403Z,44.47
2019-02-16T04:29:07.114Z,43.17
2019-02-16T04:34:12.058Z,47.47
2019-02-16T04:39:17.803Z,43.13
2019-02-16T04:44:22.025Z,42.37
2019-02-16T04:49:26.248Z,41.53
2019-02-16T04:54:30.618Z,45.73
2019-02-16T04:59:35.573Z,45.70
2019-02-16T05:04:39.727Z,47.10
2019-02-16T05:09:44.285Z,44.57
2019-02-16T05:14:48.529Z,45.50
2019-02-16T05:19:52.698Z,48.47
2019-02-16T05:24:57.099Z,45.13
2019-02-16T05:30:01.849Z,48.27
2019-02-16T05:35:06.982Z,43.73
2019-02-16T05:40:12.750Z,47.03
2019-02-16T05:45:18.529Z,44.57
2019-02-16T05:50:22.774Z,45.00
2019-02-16T05:55:27.115Z,44.23
2019-02-16T06:00:31.751Z,42.50
2019-02-16T06:05:37.450Z,41.50
2019-02-16T06:10:41.902Z,44.30
2019-02-16T06:15:46.047Z,42.60
2019-02-16T06:20:50.489Z,43.73
2019-02-16T06:25:54.929Z,41.40
2019-02-16T06:30:59.078Z,45.97
2019-02-16T06:36:04.723Z,44.67
2019-02-16T06:41:09.266Z,40.07
2019-02-16T06:46:13.677Z,40.77
2019-02-16T06:51:18.126Z,41.77
2019-02-16T06:56:23.167Z,43.23
2019-02-16T07:01:28.030Z,41.23
2019-02-16T07:06:32.424Z,39.50
2019-02-16T07:11:36.945Z,39.57
2019-02-16T07:16:41.094Z,40.43
2019-02-16T07:21:45.338Z,40.30
2019-02-16T07:26:49.618Z,39.77
2019-02-16T07:31:53.955Z,35.67
2019-02-16T07:36:58.300Z,40.03
2019-02-16T07:42:02.597Z,39.80
2019-02-16T07:47:08.297Z,38.20
2019-02-16T07:52:12.449Z,39.20
2019-02-16T07:57:17.717Z,41.43
2019-02-16T08:02:21.976Z,38.87
2019-02-16T08:07:27.122Z,35.37
2019-02-16T08:12:31.386Z,37.63
2019-02-16T08:17:35.639Z,41.40
2019-02-16T08:22:39.791Z,37.00
2019-02-16T08:27:44.646Z,39.87
2019-02-16T08:32:49.297Z,41.23
2019-02-16T08:37:53.550Z,39.57
2019-02-16T08:42:59.331Z,38.97
2019-02-16T08:48:04.266Z,33.43
2019-02-16T08:53:09.959Z,34.50
2019-02-16T08:58:15.597Z,35.20
2019-02-16T09:03:19.750Z,35.77
2019-02-16T09:08:24.003Z,33.93
2019-02-16T09:13:28.160Z,38.33
2019-02-16T09:18:32.465Z,34.43
2019-02-16T09:23:37.562Z,36.53
2019-02-16T09:28:41.741Z,34.60
2019-02-16T09:33:46.823Z,37.67
2019-02-16T09:38:51.186Z,33.53
2019-02-16T09:43:55.702Z,35.07
2019-02-16T09:49:00.377Z,31.33
2019-02-16T09:54:08.431Z,32.60
2019-02-16T09:59:11.038Z,36.33
2019-02-16T10:04:16.805Z,33.73
2019-02-16T10:09:21.221Z,34.03
2019-02-16T10:14:26.090Z,32.27
2019-02-16T10:19:30.665Z,31.13
2019-02-16T10:24:34.942Z,32.63
2019-02-16T10:29:39.490Z,32.13
2019-02-16T10:34:43.887Z,36.03
2019-02-16T10:39:48.155Z,32.17
2019-02-16T10:44:52.450Z,33.63
2019-02-16T10:49:56.738Z,32.00
2019-02-16T10:55:01.409Z,30.63
2019-02-16T11:00:07.501Z,33.47
2019-02-16T11:05:13.174Z,31.83
2019-02-16T11:10:17.669Z,29.53
2019-02-16T11:15:21.984Z,29.83
2019-02-16T11:20:27.510Z,30.00
2019-02-16T11:25:31.698Z,32.73
2019-02-16T11:30:37.409Z,29.63
2019-02-16T11:35:41.599Z,31.80
2019-02-16T11:40:46.054Z,32.67
2019-02-16T11:45:50.274Z,28.83
2019-02-16T11:50:54.461Z,30.33
2019-02-16T11:55:58.639Z,30.00
2019-02-16T12:01:02.807Z,30.57
2019-02-16T12:06:08.546Z,31.00
2019-02-16T12:11:12.919Z,30.60
2019-02-16T12:16:17.926Z,28.60
2019-02-16T12:21:22.759Z,30.57
2019-02-16T12:26:27.905Z,29.27
2019-02-16T12:31:32.622Z,29.27
2019-02-16T12:36:37.731Z,27.60
2019-02-16T12:41:42.863Z,28.87
2019-02-16T12:46:47.874Z,28.43
2019-02-16T12:51:52.462Z,29.87
2019-02-16T12:56:56.736Z,29.77
2019-02-16T13:02:00.869Z,29.63
2019-02-16T13:07:05.282Z,29.27
2019-02-16T13:12:10.342Z,28.10
2019-02-16T13:17:16.153Z,29.00
2019-02-16T13:22:20.554Z,27.80
2019-02-16T13:27:24.981Z,27.97
2019-02-16T13:32:29.198Z,27.53
2019-02-16T13:37:33.751Z,28.67
2019-02-16T13:42:38.521Z,27.33
2019-02-16T13:47:42.715Z,27.77
2019-02-16T13:52:46.852Z,27.53
2019-02-16T13:57:51.174Z,29.47
2019-02-16T14:02:55.354Z,27.63
2019-02-16T14:07:59.650Z,27.60
2019-02-16T14:13:05.125Z,27.43
2019-02-16T14:18:09.711Z,30.07
2019-02-16T14:23:15.413Z,27.17
2019-02-16T14:28:19.791Z,31.67
2019-02-16T14:33:24.234Z,28.70
2019-02-16T14:38:28.776Z,29.47
2019-02-16T14:43:33.759Z,30.93
2019-02-16T14:48:38.478Z,31.40
2019-02-16T14:53:42.751Z,33.47
2019-02-16T14:58:47.049Z,32.13
2019-02-16T15:03:51.340Z,35.87
2019-02-16T15:08:55.619Z,40.37
2019-02-16T15:13:59.926Z,37.30
2019-02-16T15:19:04.598Z,37.97
2019-02-16T15:24:10.574Z,39.53
2019-02-16T15:29:15.542Z,40.23
2019-02-16T15:34:20.291Z,36.00
2019-02-16T15:39:25.408Z,37.87
2019-02-16T15:44:30.387Z,36.33
2019-02-16T15:49:35.025Z,39.83
2019-02-16T15:54:39.314Z,36.97
2019-02-16T15:59:43.646Z,41.67
2019-02-16T16:04:47.919Z,37.53
2019-02-16T16:09:52.371Z,39.13
2019-02-16T16:14:56.563Z,36.50
2019-02-16T16:20:00.742Z,38.83
2019-02-16T16:25:05.389Z,37.60
2019-02-16T16:30:10.010Z,35.83
2019-02-16T16:35:26.591Z,37.63
2019-02-16T16:40:32.071Z,35.50
2019-02-16T16:45:36.334Z,39.37
2019-02-16T16:50:41.974Z,40.17
2019-02-16T16:55:46.271Z,34.77
2019-02-16T17:00:50.566Z,42.77
2019-02-16T17:05:56.286Z,37.43
2019-02-16T17:11:00.478Z,34.30
2019-02-16T17:16:04.719Z,38.30
2019-02-16T17:21:09.066Z,39.97
2019-02-16T17:26:13.810Z,34.63
2019-02-16T17:31:18.138Z,34.80
2019-02-16T17:36:22.334Z,38.30
2019-02-16T17:41:27.654Z,35.10
2019-02-16T17:46:31.839Z,38.17
2019-02-16T17:51:37.154Z,39.50
2019-02-16T17:56:46.719Z,38.73
2019-02-16T18:01:48.065Z,38.13
2019-02-16T18:06:52.279Z,40.73
2019-02-16T18:11:57.377Z,43.57
2019-02-16T18:17:02.045Z,40.83
2019-02-16T18:22:06.288Z,37.73
2019-02-16T18:27:10.759Z,39.43
2019-02-16T18:32:16.566Z,43.40
2019-02-16T18:37:20.791Z,42.17
2019-02-16T18:42:26.615Z,42.90
2019-02-16T18:47:30.852Z,43.90
2019-02-16T18:52:35.615Z,44.83
2019-02-16T18:57:39.795Z,49.60
2019-02-16T19:02:44.354Z,49.03
2019-02-16T19:07:48.697Z,56.57
2019-02-16T19:12:53.043Z,48.07
2019-02-16T19:17:57.360Z,49.47
2019-02-16T19:23:01.565Z,48.20
2019-02-16T19:28:06.388Z,53.90
2019-02-16T19:33:10.970Z,52.87
2019-02-16T19:38:16.349Z,51.40
2019-02-16T19:43:20.547Z,57.87
2019-02-16T19:48:25.594Z,53.53
2019-02-16T19:53:29.834Z,56.60
2019-02-16T19:58:35.757Z,53.90
2019-02-16T20:03:39.952Z,62.17
2019-02-16T20:08:45.012Z,54.87
2019-02-16T20:13:49.383Z,61.77
2019-02-16T20:18:53.888Z,60.83
2019-02-16T20:23:58.219Z,61.77
2019-02-16T20:29:02.408Z,66.63
2019-02-16T20:34:06.575Z,70.60
2019-02-16T20:39:10.812Z,64.67
2019-02-16T20:44:16.323Z,66.43
2019-02-16T20:49:20.575Z,69.13
2019-02-16T20:54:25.648Z,75.43
2019-02-16T20:59:29.881Z,70.30
2019-02-16T21:04:35.183Z,71.40
2019-02-16T21:09:39.779Z,71.73
2019-02-16T21:14:44.528Z,75.93
2019-02-16T21:19:49.642Z,78.50
2019-02-16T21:24:55.470Z,74.80
2019-02-16T21:30:00.083Z,81.40
2019-02-16T21:35:05.914Z,82.53
2019-02-16T21:40:11.631Z,82.00
2019-02-16T21:45:17.411Z,83.60
2019-02-16T21:50:21.806Z,88.93
2019-02-16T21:55:26.656Z,84.80
2019-02-16T22:00:31.042Z,86.23
2019-02-16T22:05:36.837Z,89.13
2019-02-16T22:10:41.434Z,90.90
2019-02-16T22:15:46.866Z,93.27
2019-02-16T22:20:51.073Z,89.10
2019-02-16T22:25:55.966Z,92.80
2019-02-16T22:31:00.845Z,95.90
2019-02-16T22:36:06.710Z,108.20
2019-02-16T22:41:12.436Z,99.81
2019-02-16T22:46:17.729Z,97.93
2019-02-16T22:51:21.912Z,105.00
2019-02-16T22:56:26.544Z,102.83
2019-02-16T23:01:31.590Z,106.17
2019-02-16T23:06:36.872Z,101.07
2019-02-16T23:11:41.597Z,103.23
2019-02-16T23:16:46.296Z,106.87
2019-02-16T23:21:50.417Z,108.83
2019-02-16T23:26:54.720Z,119.13
2019-02-16T23:31:58.983Z,115.13
2019-02-16T23:37:03.412Z,118.07
2019-02-16T23:42:08.078Z,112.83
2019-02-16T23:47:12.827Z,111.07
2019-02-16T23:52:18.190Z,117.73
2019-02-16T23:57:22.584Z,115.93
